sensor_id;sensor_type;location;lat;lon;timestamp;pressure;altitude;pressure_sealevel;temperature;humidity
8575;BME280;4325;42.520;27.448;2024-01-16T00:02:02;99669.81;;;4.73;100.00
8575;BME280;4325;42.520;27.448;2024-01-16T00:04:29;99668.91;;;4.57;100.00
8575;BME280;4325;42.520;27.448;2024-01-16T00:06:56;99666.94;;;4.53;100.00
8575;BME280;4325;42.520;27.448;2024-01-16T00:09:23;99678.78;;;4.42;100.00
8575;BME280;4325;42.520;27.448;2024-01-16T00:11:50;99679.75;;;4.31;100.00
8575;BME280;4325;42.520;27.448;2024-01-16T00:14:17;99682.72;;;4.29;100.00
8575;BME280;4325;42.520;27.448;2024-01-16T00:16:45;99677.56;;;4.28;100.00
8575;BME280;4325;42.520;27.448;2024-01-16T00:19:14;99676.53;;;4.34;100.00
8575;BME280;4325;42.520;27.448;2024-01-16T00:21:42;99665.19;;;4.37;100.00
8575;BME280;4325;42.520;27.448;2024-01-16T00:24:11;99665.69;;;4.34;100.00
8575;BME280;4325;42.520;27.448;2024-01-16T00:26:38;99672.75;;;4.35;100.00
8575;BME280;4325;42.520;27.448;2024-01-16T00:29:05;99671.94;;;4.34;100.00
8575;BME280;4325;42.520;27.448;2024-01-16T00:31:32;99669.50;;;4.33;100.00
8575;BME280;4325;42.520;27.448;2024-01-16T00:34:00;99658.66;;;4.33;100.00
8575;BME280;4325;42.520;27.448;2024-01-16T00:36:28;99661.91;;;4.35;100.00
8575;BME280;4325;42.520;27.448;2024-01-16T00:38:56;99661.91;;;4.35;100.00
8575;BME280;4325;42.520;27.448;2024-01-16T00:41:23;99662.41;;;4.32;100.00
8575;BME280;4325;42.520;27.448;2024-01-16T00:43:50;99655.63;;;4.29;100.00
8575;BME280;4325;42.520;27.448;2024-01-16T00:46:17;99657.50;;;4.29;100.00
8575;BME280;4325;42.520;27.448;2024-01-16T00:48:44;99662.16;;;4.33;100.00
8575;BME280;4325;42.520;27.448;2024-01-16T00:51:11;99658.69;;;4.38;100.00
8575;BME280;4325;42.520;27.448;2024-01-16T00:53:41;99654.66;;;4.40;100.00
8575;BME280;4325;42.520;27.448;2024-01-16T00:56:09;99659.84;;;4.47;100.00
8575;BME280;4325;42.520;27.448;2024-01-16T00:58:38;99660.97;;;4.51;100.00
8575;BME280;4325;42.520;27.448;2024-01-16T01:01:05;99657.19;;;4.52;100.00
8575;BME280;4325;42.520;27.448;2024-01-16T01:03:32;99664.53;;;4.56;100.00
8575;BME280;4325;42.520;27.448;2024-01-16T01:06:00;99657.78;;;4.59;100.00
8575;BME280;4325;42.520;27.448;2024-01-16T01:08:27;99645.28;;;4.58;100.00
8575;BME280;4325;42.520;27.448;2024-01-16T01:10:56;99642.34;;;4.59;100.00
8575;BME280;4325;42.520;27.448;2024-01-16T01:13:23;99634.81;;;4.66;100.00
8575;BME280;4325;42.520;27.448;2024-01-16T01:15:50;99637.28;;;4.73;100.00
8575;BME280;4325;42.520;27.448;2024-01-16T01:18:17;99635.72;;;4.82;100.00
8575;BME280;4325;42.520;27.448;2024-01-16T01:20:44;99624.91;;;4.87;100.00
8575;BME280;4325;42.520;27.448;2024-01-16T01:23:12;99636.34;;;4.94;100.00
8575;BME280;4325;42.520;27.448;2024-01-16T01:25:39;99637.19;;;5.00;100.00
8575;BME280;4325;42.520;27.448;2024-01-16T01:28:07;99637.50;;;5.03;100.00
8575;BME280;4325;42.520;27.448;2024-01-16T01:30:34;99635.88;;;5.07;100.00
8575;BME280;4325;42.520;27.448;2024-01-16T01:33:01;99626.13;;;5.11;100.00
8575;BME280;4325;42.520;27.448;2024-01-16T01:35:28;99633.22;;;5.12;100.00
8575;BME280;4325;42.520;27.448;2024-01-16T01:37:55;99628.63;;;5.18;100.00
8575;BME280;4325;42.520;27.448;2024-01-16T01:40:22;99622.09;;;5.14;100.00
8575;BME280;4325;42.520;27.448;2024-01-16T01:42:49;99618.81;;;5.12;100.00
8575;BME280;4325;42.520;27.448;2024-01-16T01:45:18;99613.38;;;5.07;100.00
8575;BME280;4325;42.520;27.448;2024-01-16T01:47:45;99606.06;;;5.07;100.00
8575;BME280;4325;42.520;27.448;2024-01-16T01:50:13;99614.72;;;5.09;100.00
8575;BME280;4325;42.520;27.448;2024-01-16T01:52:41;99621.50;;;5.07;100.00
8575;BME280;4325;42.520;27.448;2024-01-16T01:55:11;99613.09;;;5.03;100.00
8575;BME280;4325;42.520;27.448;2024-01-16T01:57:39;99616.31;;;5.00;100.00
8575;BME280;4325;42.520;27.448;2024-01-16T02:00:09;99620.69;;;5.01;100.00
8575;BME280;4325;42.520;27.448;2024-01-16T02:02:38;99616.91;;;5.07;100.00
8575;BME280;4325;42.520;27.448;2024-01-16T02:05:06;99615.03;;;5.13;100.00
8575;BME280;4325;42.520;27.448;2024-01-16T02:07:34;99611.56;;;5.22;100.00
8575;BME280;4325;42.520;27.448;2024-01-16T02:10:02;99612.69;;;5.31;100.00
8575;BME280;4325;42.520;27.448;2024-01-16T02:12:29;99608.66;;;5.39;100.00
8575;BME280;4325;42.520;27.448;2024-01-16T02:14:56;99606.25;;;5.53;100.00
8575;BME280;4325;42.520;27.448;2024-01-16T02:17:23;99605.22;;;5.64;100.00
8575;BME280;4325;42.520;27.448;2024-01-16T02:19:52;99603.06;;;5.71;100.00
8575;BME280;4325;42.520;27.448;2024-01-16T02:22:20;99601.16;;;5.71;100.00
8575;BME280;4325;42.520;27.448;2024-01-16T02:24:51;99607.41;;;5.72;100.00
8575;BME280;4325;42.520;27.448;2024-01-16T02:27:18;99603.59;;;5.73;100.00
8575;BME280;4325;42.520;27.448;2024-01-16T02:29:45;99589.47;;;5.71;100.00
8575;BME280;4325;42.520;27.448;2024-01-16T02:32:12;99593.81;;;5.62;100.00
8575;BME280;4325;42.520;27.448;2024-01-16T02:34:40;99591.59;;;5.54;100.00
8575;BME280;4325;42.520;27.448;2024-01-16T02:37:07;99595.06;;;5.34;100.00
8575;BME280;4325;42.520;27.448;2024-01-16T02:39:34;99599.59;;;5.23;100.00
8575;BME280;4325;42.520;27.448;2024-01-16T02:42:03;99608.53;;;5.14;100.00
8575;BME280;4325;42.520;27.448;2024-01-16T02:44:30;99601.16;;;5.04;100.00
8575;BME280;4325;42.520;27.448;2024-01-16T02:46:58;99609.31;;;5.09;100.00
8575;BME280;4325;42.520;27.448;2024-01-16T02:49:26;99591.94;;;5.05;100.00
8575;BME280;4325;42.520;27.448;2024-01-16T02:51:53;99586.47;;;4.95;100.00
8575;BME280;4325;42.520;27.448;2024-01-16T02:54:20;99602.94;;;4.84;100.00
8575;BME280;4325;42.520;27.448;2024-01-16T02:56:47;99612.09;;;4.78;100.00
8575;BME280;4325;42.520;27.448;2024-01-16T02:59:16;99603.34;;;4.65;100.00
8575;BME280;4325;42.520;27.448;2024-01-16T03:01:43;99601.72;;;4.64;100.00
8575;BME280;4325;42.520;27.448;2024-01-16T03:04:10;99610.63;;;4.60;100.00
8575;BME280;4325;42.520;27.448;2024-01-16T03:06:37;99608.50;;;4.62;100.00
8575;BME280;4325;42.520;27.448;2024-01-16T03:09:04;99609.03;;;4.64;100.00
8575;BME280;4325;42.520;27.448;2024-01-16T03:11:32;99611.75;;;4.64;100.00
8575;BME280;4325;42.520;27.448;2024-01-16T03:13:59;99618.81;;;4.70;100.00
8575;BME280;4325;42.520;27.448;2024-01-16T03:16:28;99618.34;;;4.78;100.00
8575;BME280;4325;42.520;27.448;2024-01-16T03:18:55;99619.00;;;4.95;100.00
8575;BME280;4325;42.520;27.448;2024-01-16T03:21:22;99624.19;;;5.02;100.00
8575;BME280;4325;42.520;27.448;2024-01-16T03:23:49;99621.75;;;5.00;100.00
8575;BME280;4325;42.520;27.448;2024-01-16T03:26:16;99623.91;;;4.98;100.00
8575;BME280;4325;42.520;27.448;2024-01-16T03:28:43;99625.00;;;5.02;100.00
8575;BME280;4325;42.520;27.448;2024-01-16T03:31:12;99626.16;;;5.16;100.00
8575;BME280;4325;42.520;27.448;2024-01-16T03:33:41;99624.59;;;5.20;100.00
8575;BME280;4325;42.520;27.448;2024-01-16T03:36:09;99641.69;;;5.26;100.00
8575;BME280;4325;42.520;27.448;2024-01-16T03:38:37;99644.69;;;5.29;100.00
8575;BME280;4325;42.520;27.448;2024-01-16T03:41:04;99645.28;;;5.37;100.00
8575;BME280;4325;42.520;27.448;2024-01-16T03:43:33;99649.38;;;5.44;100.00
8575;BME280;4325;42.520;27.448;2024-01-16T03:46:00;99643.97;;;5.49;100.00
8575;BME280;4325;42.520;27.448;2024-01-16T03:48:27;99655.69;;;5.55;100.00
8575;BME280;4325;42.520;27.448;2024-01-16T03:50:56;99652.41;;;5.53;100.00
8575;BME280;4325;42.520;27.448;2024-01-16T03:53:23;99654.56;;;5.51;100.00
8575;BME280;4325;42.520;27.448;2024-01-16T03:55:50;99657.56;;;5.49;100.00
8575;BME280;4325;42.520;27.448;2024-01-16T03:58:17;99654.81;;;5.44;100.00
8575;BME280;4325;42.520;27.448;2024-01-16T04:00:45;99670.28;;;5.44;100.00
8575;BME280;4325;42.520;27.448;2024-01-16T04:03:13;99673.78;;;5.39;100.00
8575;BME280;4325;42.520;27.448;2024-01-16T04:05:40;99667.47;;;5.28;100.00
8575;BME280;4325;42.520;27.448;2024-01-16T04:08:08;99673.97;;;5.22;100.00
8575;BME280;4325;42.520;27.448;2024-01-16T04:10:35;99685.34;;;5.19;100.00
8575;BME280;4325;42.520;27.448;2024-01-16T04:13:04;99676.63;;;5.12;100.00
8575;BME280;4325;42.520;27.448;2024-01-16T04:15:31;99686.91;;;5.10;100.00
8575;BME280;4325;42.520;27.448;2024-01-16T04:17:59;99690.19;;;5.12;100.00
8575;BME280;4325;42.520;27.448;2024-01-16T04:20:26;99695.06;;;5.10;100.00
8575;BME280;4325;42.520;27.448;2024-01-16T04:22:53;99711.88;;;5.12;100.00
8575;BME280;4325;42.520;27.448;2024-01-16T04:25:22;99706.47;;;5.12;100.00
8575;BME280;4325;42.520;27.448;2024-01-16T04:27:49;99709.44;;;5.11;100.00
8575;BME280;4325;42.520;27.448;2024-01-16T04:30:16;99720.56;;;5.14;100.00
8575;BME280;4325;42.520;27.448;2024-01-16T04:32:45;99723.31;;;5.19;100.00
8575;BME280;4325;42.520;27.448;2024-01-16T04:35:12;99732.84;;;5.22;100.00
8575;BME280;4325;42.520;27.448;2024-01-16T04:37:40;99727.16;;;5.28;100.00
8575;BME280;4325;42.520;27.448;2024-01-16T04:40:08;99738.34;;;5.32;100.00
8575;BME280;4325;42.520;27.448;2024-01-16T04:42:36;99747.34;;;5.38;100.00
8575;BME280;4325;42.520;27.448;2024-01-16T04:45:04;99752.53;;;5.44;100.00
8575;BME280;4325;42.520;27.448;2024-01-16T04:47:32;99751.47;;;5.50;100.00
8575;BME280;4325;42.520;27.448;2024-01-16T04:49:59;99761.56;;;5.60;100.00
8575;BME280;4325;42.520;27.448;2024-01-16T04:52:26;99754.31;;;5.70;100.00
8575;BME280;4325;42.520;27.448;2024-01-16T04:54:53;99757.59;;;5.77;100.00
8575;BME280;4325;42.520;27.448;2024-01-16T04:57:20;99759.03;;;5.85;100.00
8575;BME280;4325;42.520;27.448;2024-01-16T04:59:48;99771.56;;;5.91;100.00
8575;BME280;4325;42.520;27.448;2024-01-16T05:02:16;99778.63;;;5.97;100.00
8575;BME280;4325;42.520;27.448;2024-01-16T05:04:44;99796.06;;;6.01;100.00
8575;BME280;4325;42.520;27.448;2024-01-16T05:07:15;99796.34;;;6.10;100.00
8575;BME280;4325;42.520;27.448;2024-01-16T05:09:44;99801.50;;;6.11;100.00
8575;BME280;4325;42.520;27.448;2024-01-16T05:12:11;99795.53;;;6.09;100.00
8575;BME280;4325;42.520;27.448;2024-01-16T05:14:38;99795.00;;;6.07;100.00
8575;BME280;4325;42.520;27.448;2024-01-16T05:17:06;99809.41;;;6.08;100.00
8575;BME280;4325;42.520;27.448;2024-01-16T05:19:33;99811.00;;;6.04;100.00
8575;BME280;4325;42.520;27.448;2024-01-16T05:22:00;99822.41;;;6.01;100.00
8575;BME280;4325;42.520;27.448;2024-01-16T05:24:28;99814.84;;;6.08;100.00
8575;BME280;4325;42.520;27.448;2024-01-16T05:26:55;99827.66;;;6.22;100.00
8575;BME280;4325;42.520;27.448;2024-01-16T05:29:23;99833.72;;;6.39;100.00
8575;BME280;4325;42.520;27.448;2024-01-16T05:31:50;99829.69;;;6.52;100.00
8575;BME280;4325;42.520;27.448;2024-01-16T05:34:18;99834.88;;;6.58;100.00
8575;BME280;4325;42.520;27.448;2024-01-16T05:36:45;99840.88;;;6.65;100.00
8575;BME280;4325;42.520;27.448;2024-01-16T05:39:12;99851.19;;;6.58;100.00
8575;BME280;4325;42.520;27.448;2024-01-16T05:41:40;99860.69;;;6.56;100.00
8575;BME280;4325;42.520;27.448;2024-01-16T05:44:07;99857.66;;;6.47;100.00
8575;BME280;4325;42.520;27.448;2024-01-16T05:46:35;99864.19;;;6.46;100.00
8575;BME280;4325;42.520;27.448;2024-01-16T05:49:02;99869.88;;;6.40;100.00
8575;BME280;4325;42.520;27.448;2024-01-16T05:51:30;99878.81;;;6.35;100.00
8575;BME280;4325;42.520;27.448;2024-01-16T05:53:57;99879.94;;;6.39;100.00
8575;BME280;4325;42.520;27.448;2024-01-16T05:56:25;99875.03;;;6.36;100.00
8575;BME280;4325;42.520;27.448;2024-01-16T05:58:52;99889.16;;;6.38;100.00
8575;BME280;4325;42.520;27.448;2024-01-16T06:01:19;99898.69;;;6.41;100.00
8575;BME280;4325;42.520;27.448;2024-01-16T06:03:46;99912.63;;;6.49;100.00
8575;BME280;4325;42.520;27.448;2024-01-16T06:06:14;99907.19;;;6.59;100.00
8575;BME280;4325;42.520;27.448;2024-01-16T06:08:43;99924.06;;;6.56;100.00
8575;BME280;4325;42.520;27.448;2024-01-16T06:11:10;99934.94;;;6.56;100.00
8575;BME280;4325;42.520;27.448;2024-01-16T06:13:38;99945.00;;;6.56;100.00
8575;BME280;4325;42.520;27.448;2024-01-16T06:16:06;99958.88;;;6.54;100.00
8575;BME280;4325;42.520;27.448;2024-01-16T06:18:33;99957.75;;;6.50;100.00
8575;BME280;4325;42.520;27.448;2024-01-16T06:21:01;99974.31;;;6.44;100.00
8575;BME280;4325;42.520;27.448;2024-01-16T06:23:28;99982.72;;;6.42;100.00
8575;BME280;4325;42.520;27.448;2024-01-16T06:25:57;99990.34;;;6.45;100.00
8575;BME280;4325;42.520;27.448;2024-01-16T06:28:24;100000.22;;;6.56;100.00
8575;BME280;4325;42.520;27.448;2024-01-16T06:30:51;100003.50;;;6.63;100.00
8575;BME280;4325;42.520;27.448;2024-01-16T06:33:18;100004.13;;;6.76;100.00
8575;BME280;4325;42.520;27.448;2024-01-16T06:35:45;100022.06;;;6.77;100.00
8575;BME280;4325;42.520;27.448;2024-01-16T06:38:12;100030.81;;;6.79;100.00
8575;BME280;4325;42.520;27.448;2024-01-16T06:40:39;100030.50;;;6.75;100.00
8575;BME280;4325;42.520;27.448;2024-01-16T06:43:07;100039.94;;;6.62;100.00
8575;BME280;4325;42.520;27.448;2024-01-16T06:45:34;100050.75;;;6.52;100.00
8575;BME280;4325;42.520;27.448;2024-01-16T06:48:01;100052.19;;;6.28;100.00
8575;BME280;4325;42.520;27.448;2024-01-16T06:50:28;100051.56;;;6.16;100.00
8575;BME280;4325;42.520;27.448;2024-01-16T06:52:55;100056.75;;;6.18;100.00
8575;BME280;4325;42.520;27.448;2024-01-16T06:55:22;100068.00;;;6.31;100.00
8575;BME280;4325;42.520;27.448;2024-01-16T06:57:49;100063.25;;;6.48;100.00
8575;BME280;4325;42.520;27.448;2024-01-16T07:00:18;100058.41;;;6.55;100.00
8575;BME280;4325;42.520;27.448;2024-01-16T07:02:45;100061.38;;;6.54;100.00
8575;BME280;4325;42.520;27.448;2024-01-16T07:05:12;100060.06;;;6.61;100.00
8575;BME280;4325;42.520;27.448;2024-01-16T07:07:39;100070.03;;;6.88;100.00
8575;BME280;4325;42.520;27.448;2024-01-16T07:10:07;100057.53;;;6.92;100.00
8575;BME280;4325;42.520;27.448;2024-01-16T07:12:38;100076.16;;;7.15;100.00
8575;BME280;4325;42.520;27.448;2024-01-16T07:15:06;100080.53;;;7.21;100.00
8575;BME280;4325;42.520;27.448;2024-01-16T07:17:35;100083.53;;;7.19;100.00
8575;BME280;4325;42.520;27.448;2024-01-16T07:20:02;100087.03;;;7.10;100.00
8575;BME280;4325;42.520;27.448;2024-01-16T07:22:30;100094.66;;;7.18;100.00
8575;BME280;4325;42.520;27.448;2024-01-16T07:24:57;100098.72;;;7.10;100.00
8575;BME280;4325;42.520;27.448;2024-01-16T07:27:24;100107.44;;;7.12;100.00
8575;BME280;4325;42.520;27.448;2024-01-16T07:29:51;100112.16;;;7.27;100.00
8575;BME280;4325;42.520;27.448;2024-01-16T07:32:18;100119.28;;;7.43;100.00
8575;BME280;4325;42.520;27.448;2024-01-16T07:34:46;100117.16;;;7.55;100.00
8575;BME280;4325;42.520;27.448;2024-01-16T07:37:13;100123.19;;;7.62;100.00
8575;BME280;4325;42.520;27.448;2024-01-16T07:39:41;100147.72;;;7.67;100.00
8575;BME280;4325;42.520;27.448;2024-01-16T07:42:08;100152.13;;;7.73;100.00
8575;BME280;4325;42.520;27.448;2024-01-16T07:44:34;100153.75;;;7.79;100.00
8575;BME280;4325;42.520;27.448;2024-01-16T07:47:01;100154.88;;;7.88;100.00
8575;BME280;4325;42.520;27.448;2024-01-16T07:49:29;100166.38;;;7.95;100.00
8575;BME280;4325;42.520;27.448;2024-01-16T07:51:58;100165.81;;;7.98;100.00
8575;BME280;4325;42.520;27.448;2024-01-16T07:54:25;100171.81;;;8.06;100.00
8575;BME280;4325;42.520;27.448;2024-01-16T07:56:52;100179.75;;;8.07;100.00
8575;BME280;4325;42.520;27.448;2024-01-16T07:59:19;100189.03;;;8.16;100.00
8575;BME280;4325;42.520;27.448;2024-01-16T08:01:46;100199.66;;;8.23;100.00
8575;BME280;4325;42.520;27.448;2024-01-16T08:04:13;100197.84;;;8.38;100.00
8575;BME280;4325;42.520;27.448;2024-01-16T08:06:40;100202.78;;;8.56;100.00
8575;BME280;4325;42.520;27.448;2024-01-16T08:09:09;100203.88;;;8.81;100.00
8575;BME280;4325;42.520;27.448;2024-01-16T08:11:37;100211.78;;;9.07;100.00
8575;BME280;4325;42.520;27.448;2024-01-16T08:14:05;100202.44;;;9.49;100.00
8575;BME280;4325;42.520;27.448;2024-01-16T08:16:32;100223.63;;;9.82;98.79
8575;BME280;4325;42.520;27.448;2024-01-16T08:18:59;100224.63;;;10.06;95.80
8575;BME280;4325;42.520;27.448;2024-01-16T08:21:26;100240.16;;;10.26;92.54
8575;BME280;4325;42.520;27.448;2024-01-16T08:23:53;100248.53;;;10.44;87.69
8575;BME280;4325;42.520;27.448;2024-01-16T08:26:21;100254.94;;;10.69;85.38
8575;BME280;4325;42.520;27.448;2024-01-16T08:28:48;100252.00;;;10.99;81.84
8575;BME280;4325;42.520;27.448;2024-01-16T08:31:16;100272.13;;;11.18;79.16
8575;BME280;4325;42.520;27.448;2024-01-16T08:33:44;100283.59;;;11.20;77.34
8575;BME280;4325;42.520;27.448;2024-01-16T08:36:11;100280.81;;;11.25;76.95
8575;BME280;4325;42.520;27.448;2024-01-16T08:38:38;100281.81;;;11.34;76.72
8575;BME280;4325;42.520;27.448;2024-01-16T08:41:05;100294.16;;;11.65;74.27
8575;BME280;4325;42.520;27.448;2024-01-16T08:43:33;100285.47;;;12.90;65.82
8575;BME280;4325;42.520;27.448;2024-01-16T08:46:00;100309.47;;;14.27;58.54
8575;BME280;4325;42.520;27.448;2024-01-16T08:48:28;100311.31;;;16.45;50.13
8575;BME280;4325;42.520;27.448;2024-01-16T08:50:55;100304.25;;;17.47;45.94
8575;BME280;4325;42.520;27.448;2024-01-16T08:53:22;100306.19;;;16.78;45.71
8575;BME280;4325;42.520;27.448;2024-01-16T08:55:49;100309.22;;;15.80;47.51
8575;BME280;4325;42.520;27.448;2024-01-16T08:58:16;100304.97;;;15.08;49.21
8575;BME280;4325;42.520;27.448;2024-01-16T09:00:45;100312.84;;;14.51;49.98
8575;BME280;4325;42.520;27.448;2024-01-16T09:03:12;100325.16;;;14.00;51.35
8575;BME280;4325;42.520;27.448;2024-01-16T09:05:39;100330.91;;;13.71;51.87
8575;BME280;4325;42.520;27.448;2024-01-16T09:08:07;100327.06;;;13.40;53.20
8575;BME280;4325;42.520;27.448;2024-01-16T09:10:34;100334.56;;;13.34;53.88
8575;BME280;4325;42.520;27.448;2024-01-16T09:13:01;100330.81;;;13.11;54.64
8575;BME280;4325;42.520;27.448;2024-01-16T09:15:28;100339.09;;;12.88;54.89
8575;BME280;4325;42.520;27.448;2024-01-16T09:17:56;100339.53;;;12.76;56.09
8575;BME280;4325;42.520;27.448;2024-01-16T09:20:23;100341.09;;;12.82;55.33
8575;BME280;4325;42.520;27.448;2024-01-16T09:22:50;100342.06;;;12.91;54.47
8575;BME280;4325;42.520;27.448;2024-01-16T09:25:17;100350.25;;;12.96;54.80
8575;BME280;4325;42.520;27.448;2024-01-16T09:27:45;100356.41;;;13.07;53.34
8575;BME280;4325;42.520;27.448;2024-01-16T09:30:13;100367.59;;;13.15;52.40
8575;BME280;4325;42.520;27.448;2024-01-16T09:32:40;100379.69;;;13.14;51.77
8575;BME280;4325;42.520;27.448;2024-01-16T09:35:09;100379.78;;;13.04;51.77
8575;BME280;4325;42.520;27.448;2024-01-16T09:37:36;100384.25;;;13.00;51.96
8575;BME280;4325;42.520;27.448;2024-01-16T09:40:06;100363.47;;;12.94;52.07
8575;BME280;4325;42.520;27.448;2024-01-16T09:42:33;100384.56;;;12.99;51.36
8575;BME280;4325;42.520;27.448;2024-01-16T09:45:01;100387.66;;;12.92;51.93
8575;BME280;4325;42.520;27.448;2024-01-16T09:47:30;100394.34;;;12.86;52.16
8575;BME280;4325;42.520;27.448;2024-01-16T09:49:57;100393.75;;;12.89;52.00
8575;BME280;4325;42.520;27.448;2024-01-16T09:52:27;100403.47;;;12.82;52.08
8575;BME280;4325;42.520;27.448;2024-01-16T09:54:54;100402.00;;;12.89;51.20
8575;BME280;4325;42.520;27.448;2024-01-16T09:57:25;100412.31;;;12.97;50.53
8575;BME280;4325;42.520;27.448;2024-01-16T09:59:52;100406.88;;;12.92;48.85
8575;BME280;4325;42.520;27.448;2024-01-16T10:02:20;100426.13;;;12.92;47.13
8575;BME280;4325;42.520;27.448;2024-01-16T10:04:48;100438.38;;;12.81;45.82
8575;BME280;4325;42.520;27.448;2024-01-16T10:07:16;100439.59;;;12.70;45.45
8575;BME280;4325;42.520;27.448;2024-01-16T10:09:45;100443.81;;;12.63;45.40
8575;BME280;4325;42.520;27.448;2024-01-16T10:12:13;100449.53;;;12.66;45.33
8575;BME280;4325;42.520;27.448;2024-01-16T10:14:41;100448.53;;;12.81;44.96
8575;BME280;4325;42.520;27.448;2024-01-16T10:17:11;100449.63;;;13.03;44.61
8575;BME280;4325;42.520;27.448;2024-01-16T10:19:48;100458.59;;;13.33;43.86
8575;BME280;4325;42.520;27.448;2024-01-16T10:22:19;100461.50;;;13.60;43.18
8575;BME280;4325;42.520;27.448;2024-01-16T10:24:49;100455.94;;;14.29;42.07
8575;BME280;4325;42.520;27.448;2024-01-16T10:27:16;100461.13;;;15.04;40.25
8575;BME280;4325;42.520;27.448;2024-01-16T10:29:54;100466.66;;;15.53;39.08
8575;BME280;4325;42.520;27.448;2024-01-16T10:32:29;100470.34;;;16.07;38.09
8575;BME280;4325;42.520;27.448;2024-01-16T10:35:04;100467.53;;;16.20;38.31
8575;BME280;4325;42.520;27.448;2024-01-16T10:37:33;100485.53;;;15.96;37.97
8575;BME280;4325;42.520;27.448;2024-01-16T10:40:09;100484.75;;;15.59;36.96
8575;BME280;4325;42.520;27.448;2024-01-16T10:42:36;100498.66;;;16.57;35.58
8575;BME280;4325;42.520;27.448;2024-01-16T10:45:05;100492.53;;;17.07;34.85
8575;BME280;4325;42.520;27.448;2024-01-16T10:47:32;100488.34;;;19.31;32.42
8575;BME280;4325;42.520;27.448;2024-01-16T10:50:03;100498.34;;;21.65;30.45
8575;BME280;4325;42.520;27.448;2024-01-16T10:52:33;100494.94;;;25.73;25.50
8575;BME280;4325;42.520;27.448;2024-01-16T10:55:03;100498.22;;;28.56;22.13
8575;BME280;4325;42.520;27.448;2024-01-16T10:57:33;100503.16;;;29.36;20.05
8575;BME280;4325;42.520;27.448;2024-01-16T11:00:03;100501.41;;;30.93;19.38
8575;BME280;4325;42.520;27.448;2024-01-16T11:02:38;100514.59;;;33.16;16.85
8575;BME280;4325;42.520;27.448;2024-01-16T11:05:06;100512.72;;;31.81;16.93
8575;BME280;4325;42.520;27.448;2024-01-16T11:07:34;100510.75;;;29.75;18.36
8575;BME280;4325;42.520;27.448;2024-01-16T11:10:02;100520.38;;;27.82;19.42
8575;BME280;4325;42.520;27.448;2024-01-16T11:12:30;100514.44;;;26.92;20.49
8575;BME280;4325;42.520;27.448;2024-01-16T11:15:02;100507.88;;;30.10;18.16
8575;BME280;4325;42.520;27.448;2024-01-16T11:17:33;100501.03;;;33.50;15.50
8575;BME280;4325;42.520;27.448;2024-01-16T11:20:02;100516.47;;;35.06;14.16
8575;BME280;4325;42.520;27.448;2024-01-16T11:22:32;100517.47;;;37.26;12.80
8575;BME280;4325;42.520;27.448;2024-01-16T11:25:09;100518.94;;;39.26;12.27
8575;BME280;4325;42.520;27.448;2024-01-16T11:27:36;100519.63;;;40.48;11.29
8575;BME280;4325;42.520;27.448;2024-01-16T11:30:06;100532.28;;;41.48;10.89
8575;BME280;4325;42.520;27.448;2024-01-16T11:32:35;100514.19;;;41.81;10.37
8575;BME280;4325;42.520;27.448;2024-01-16T11:35:03;100518.38;;;41.94;10.21
8575;BME280;4325;42.520;27.448;2024-01-16T11:37:30;100530.75;;;42.24;9.85
8575;BME280;4325;42.520;27.448;2024-01-16T11:40:31;100518.41;;;41.71;9.59
8575;BME280;4325;42.520;27.448;2024-01-16T11:42:58;100537.09;;;40.68;9.95
8575;BME280;4325;42.520;27.448;2024-01-16T11:45:50;100542.25;;;38.75;10.52
8575;BME280;4325;42.520;27.448;2024-01-16T11:48:19;100540.38;;;37.95;11.08
8575;BME280;4325;42.520;27.448;2024-01-16T11:50:46;100525.91;;;37.42;11.57
8575;BME280;4325;42.520;27.448;2024-01-16T11:53:35;100521.34;;;37.07;11.46
8575;BME280;4325;42.520;27.448;2024-01-16T11:56:15;100531.34;;;37.96;11.57
8575;BME280;4325;42.520;27.448;2024-01-16T11:58:57;100539.97;;;37.84;11.18
8575;BME280;4325;42.520;27.448;2024-01-16T12:01:29;100531.50;;;37.33;11.54
8575;BME280;4325;42.520;27.448;2024-01-16T12:04:03;100533.88;;;38.16;11.43
8575;BME280;4325;42.520;27.448;2024-01-16T12:06:31;100537.94;;;38.49;11.24
8575;BME280;4325;42.520;27.448;2024-01-16T12:09:11;100547.97;;;39.06;10.70
8575;BME280;4325;42.520;27.448;2024-01-16T12:11:39;100561.53;;;39.64;10.63
8575;BME280;4325;42.520;27.448;2024-01-16T12:14:06;100552.03;;;39.27;10.62
8575;BME280;4325;42.520;27.448;2024-01-16T12:16:35;100575.16;;;37.09;11.78
8575;BME280;4325;42.520;27.448;2024-01-16T12:19:06;100585.59;;;35.71;13.04
8575;BME280;4325;42.520;27.448;2024-01-16T12:21:34;100588.41;;;36.32;12.44
8575;BME280;4325;42.520;27.448;2024-01-16T12:24:02;100583.84;;;36.64;11.88
8575;BME280;4325;42.520;27.448;2024-01-16T12:26:30;100590.00;;;38.01;11.36
8575;BME280;4325;42.520;27.448;2024-01-16T12:28:58;100600.50;;;38.81;10.60
8575;BME280;4325;42.520;27.448;2024-01-16T12:31:26;100607.09;;;39.00;10.20
8575;BME280;4325;42.520;27.448;2024-01-16T12:34:04;100619.53;;;39.37;9.92
8575;BME280;4325;42.520;27.448;2024-01-16T12:36:32;100621.28;;;39.83;10.00
8575;BME280;4325;42.520;27.448;2024-01-16T12:39:00;100625.16;;;40.53;9.92
8575;BME280;4325;42.520;27.448;2024-01-16T12:41:30;100639.88;;;41.15;9.69
8575;BME280;4325;42.520;27.448;2024-01-16T12:44:00;100644.94;;;40.14;9.77
8575;BME280;4325;42.520;27.448;2024-01-16T12:46:27;100647.25;;;37.50;10.82
8575;BME280;4325;42.520;27.448;2024-01-16T12:49:01;100645.88;;;34.63;12.42
8575;BME280;4325;42.520;27.448;2024-01-16T12:51:28;100654.53;;;32.42;13.75
8575;BME280;4325;42.520;27.448;2024-01-16T12:54:10;100651.06;;;29.57;15.35
8575;BME280;4325;42.520;27.448;2024-01-16T12:56:38;100659.09;;;27.38;17.48
8575;BME280;4325;42.520;27.448;2024-01-16T12:59:09;100661.34;;;25.58;18.54
8575;BME280;4325;42.520;27.448;2024-01-16T13:01:39;100672.34;;;23.98;19.83
8575;BME280;4325;42.520;27.448;2024-01-16T13:04:09;100680.75;;;23.08;20.81
8575;BME280;4325;42.520;27.448;2024-01-16T13:06:36;100684.53;;;23.43;20.97
8575;BME280;4325;42.520;27.448;2024-01-16T13:09:07;100689.16;;;23.67;20.99
8575;BME280;4325;42.520;27.448;2024-01-16T13:11:45;100681.53;;;26.12;19.05